Latest Weather Observations for Redesdale

IDV60801

Issued at 1:35 pm EST Wednesday 1 October 2014 (issued every 30 minutes, with the page automatically refreshed every 10 minutes)

About weather observations | Map of weather stations | Latest weather observations for VIC | Other Formats
Station Details ID: 088051 Name: REDESDALE Lat: -37.02 Lon: 144.52 Height: 290.0 m
Data from the previous 72 hours. | See also: Recent months at Redesdale
Date/Time
EST
Temp
°C
App
Temp
°C
Dew
Point
Rel
Hum
%
Delta-T
°C
Wind Press
QNH
hPa
Press
MSL
hPa
Rain
since 9 am
mm
Dir
 
Spd
km/h
Gust
km/h
Spd
kts
Gust
kts
01/01:30pm 13.5 9.8 4.4 54 4.2 WSW 13 24 7 13 - - 0.0
01/01:00pm 14.8 11.6 6.9 59 3.9 WSW 13 24 7 13 - - 0.0
01/12:30pm 14.0 9.9 4.6 53 4.4 W 15 30 8 16 - - 0.0
01/12:00pm 14.2 9.7 6.3 59 3.9 SW 19 30 10 16 - - 0.0
01/11:30am 12.9 9.4 5.6 61 3.5 SW 13 22 7 12 - - 0.0
01/11:00am 12.7 9.6 5.6 62 3.4 WSW 11 20 6 11 - - 0.0
01/10:30am 12.0 8.2 5.6 65 3.0 SW 15 28 8 15 - - 0.0
01/10:00am 11.6 7.9 4.3 61 3.3 WSW 13 22 7 12 - - 0.0
01/09:30am 11.3 8.1 5.2 66 2.8 WSW 11 20 6 11 - - 0.0
01/09:00am 10.6 6.8 5.8 72 2.3 SW 15 24 8 13 - - 1.4
01/08:30am 9.3 5.7 5.1 75 1.9 SW 13 19 7 10 - - 1.4
01/08:00am 7.4 4.4 4.0 79 1.5 WSW 9 15 5 8 - - 1.4
01/07:30am 5.9 2.8 3.6 85 1.0 WSW 9 13 5 7 - - 1.4
01/07:00am 3.9 1.2 2.7 92 0.5 W 6 7 3 4 - - 1.4
01/06:30am 2.6 -0.3 1.7 94 0.4 W 6 7 3 4 - - 1.4
01/06:00am 2.1 -0.5 1.1 93 0.4 WSW 4 6 2 3 - - 1.4
01/05:30am 2.4 0.2 1.2 92 0.5 SW 2 4 1 2 - - 1.4
01/05:00am 2.5 0.3 1.2 91 0.5 SW 2 6 1 3 - - 1.4
01/04:30am 3.0 0.1 1.4 89 0.6 SW 6 11 3 6 - - 1.4
01/04:00am 3.4 0.3 1.6 88 0.7 SW 7 13 4 7 - - 1.4
01/03:30am 3.8 0.0 1.8 87 0.8 SW 11 20 6 11 - - 1.4
01/03:00am 4.0 0.2 1.7 85 0.9 WSW 11 22 6 12 - - 1.4
01/02:30am 4.3 0.1 1.8 84 1.0 SW 13 22 7 12 - - 1.4
01/02:00am 4.6 -0.3 1.8 82 1.1 SW 17 26 9 14 - - 1.4
01/01:30am 5.0 0.1 2.0 81 1.2 WSW 17 26 9 14 - - 1.4
01/01:00am 5.3 0.0 2.1 80 1.3 WSW 19 35 10 19 - - 1.4
01/12:30am 5.5 0.6 2.2 79 1.4 WSW 17 32 9 17 - - 1.4
01/12:00am 5.9 0.6 2.0 76 1.6 WSW 19 30 10 16 - - 1.4
 
Date/Time
EST
Temp
°C
App
Temp
°C
Dew
Point
Rel
Hum
%
Delta-T
°C
Wind Press
QNH
hPa
Press
MSL
hPa
Rain
since 9 am
mm
Dir
 
Spd
km/h
Gust
km/h
Spd
kts
Gust
kts
30/11:30pm 5.0 1.2 2.0 81 1.2 SW 11 19 6 10 - - 1.4
30/11:00pm 5.3 1.6 2.1 80 1.3 WSW 11 19 6 10 - - 1.4
30/10:30pm 5.4 2.0 2.1 79 1.4 WSW 9 15 5 8 - - 1.4
30/10:00pm 6.0 2.3 2.1 76 1.6 WSW 11 19 6 10 - - 1.4
30/09:30pm 6.6 1.2 2.7 76 1.6 SW 20 32 11 17 - - 1.4
30/09:14pm 6.9 0.1 3.3 78 1.5 SW 28 46 15 25 - - 1.4
30/09:06pm 7.9 0.4 3.6 74 1.9 SW 32 46 17 25 - - 1.4
30/09:00pm 7.2 3.7 3.3 76 1.7 SW 11 20 6 11 - - 1.4
30/08:30pm 7.3 4.2 3.4 76 1.7 SW 9 17 5 9 - - 1.4
30/08:00pm 7.8 5.0 3.3 73 1.9 SW 7 13 4 7 - - 1.4
30/07:30pm 8.3 4.4 3.2 70 2.2 SW 13 22 7 12 - - 1.4
30/07:00pm 9.1 4.4 3.1 66 2.6 WSW 17 26 9 14 - - 1.4
30/06:30pm 9.3 4.8 4.3 71 2.2 WSW 17 30 9 16 - - 1.4
30/06:00pm 9.4 5.8 5.0 74 2.0 WSW 13 22 7 12 - - 1.2
30/05:30pm 9.3 4.6 6.2 81 1.5 SW 20 30 11 16 - - 1.2
30/05:00pm 9.7 3.5 8.0 89 0.8 SW 30 48 16 26 - - 1.2
30/04:32pm 10.1 2.7 8.5 90 0.8 SW 37 57 20 31 - - 0.4
30/04:30pm 10.1 2.0 8.5 90 0.8 SW 41 57 22 31 - - 0.2
30/04:20pm 11.3 3.3 8.9 85 1.2 SW 41 61 22 33 - - 0.0
30/04:19pm 12.3 4.8 9.3 82 1.5 SW 39 56 21 30 - - 0.0
30/04:00pm 16.0 10.3 8.5 61 3.9 W 28 50 15 27 - - 0.0
30/03:38pm 18.2 10.1 7.0 48 5.7 W 39 61 21 33 - - 0.0
30/03:30pm 19.3 11.3 3.9 36 7.4 WNW 35 59 19 32 - - 0.0
30/03:00pm 20.2 10.7 3.9 34 7.9 NW 43 63 23 34 - - 0.0
30/02:30pm 21.3 13.7 5.6 36 7.9 NW 35 54 19 29 - - 0.0
30/02:03pm 22.1 14.6 6.3 36 8.1 NW 35 54 19 29 - - 0.0
30/02:00pm 21.5 13.2 6.2 37 7.8 NW 39 54 21 29 - - 0.0
30/01:30pm 21.9 13.3 4.9 33 8.5 NW 39 61 21 33 - - 0.0
30/01:06pm 21.7 14.7 6.8 38 7.7 NW 33 54 18 29 - - 0.0
30/01:00pm 21.8 13.7 7.2 39 7.6 NW 39 52 21 28 - - 0.0
30/12:49pm 20.5 13.8 5.7 38 7.5 NNW 30 56 16 30 - - 0.0
30/12:30pm 20.2 14.8 8.2 46 6.3 NNW 26 43 14 23 - - 0.0
30/12:00pm 18.3 12.1 8.0 51 5.3 NNW 30 41 16 22 - - 0.0
30/11:30am 19.1 15.7 10.4 57 4.7 N 19 32 10 17 - - 0.0
30/11:00am 18.2 14.6 10.6 61 4.1 N 20 32 11 17 - - 0.0
30/10:30am 17.7 14.7 10.6 63 3.9 N 17 24 9 13 - - 0.0
30/10:00am 16.7 14.4 10.3 66 3.4 NNE 13 19 7 10 - - 0.0
30/09:30am 15.2 13.1 9.8 70 2.8 N 11 17 6 9 - - 0.0
30/09:00am 13.9 11.3 9.3 74 2.4 NNE 13 19 7 10 - - 0.0
30/08:30am 12.9 11.5 9.7 81 1.7 NNE 7 9 4 5 - - 0.0
30/08:00am 10.6 8.8 8.0 84 1.3 NNE 7 9 4 5 - - 0.0
30/07:30am 9.8 8.9 7.6 86 1.1 N 2 4 1 2 - - 0.0
30/07:00am 8.4 7.6 8.0 97 0.2 N 2 4 1 2 - - 0.0
30/06:30am 6.0 4.6 5.6 97 0.2 N 2 4 1 2 - - 0.0
30/06:00am 4.9 2.8 4.0 94 0.4 N 4 4 2 2 - - 0.0
30/05:30am 6.8 5.5 6.1 95 0.3 N 2 4 1 2 - - 0.0
30/05:00am 7.1 5.5 6.2 94 0.4 N 4 4 2 2 - - 0.0
30/04:30am 7.5 6.3 6.4 93 0.5 N 2 4 1 2 - - 0.0
30/04:00am 7.8 6.2 6.4 91 0.7 N 4 6 2 3 - - 0.0
30/03:30am 8.5 6.5 6.3 86 1.0 N 6 9 3 5 - - 0.0
30/03:00am 9.8 7.9 7.6 86 1.1 NNW 7 9 4 5 - - 0.0
30/02:30am 8.0 5.8 6.3 89 0.8 WNW 7 11 4 6 - - 0.0
30/02:00am 6.5 4.7 5.6 94 0.4 SSW 4 6 2 3 - - 0.0
30/01:30am 6.8 5.1 5.9 94 0.4 SSW 4 6 2 3 - - 0.0
30/01:00am 7.8 6.0 7.2 96 0.3 S 6 7 3 4 - - 0.0
30/12:30am 6.8 4.5 5.9 94 0.4 SSW 7 7 4 4 - - 0.0
30/12:00am 6.8 4.7 5.7 93 0.5 E 6 7 3 4 - - 0.0
 
Date/Time
EST
Temp
°C
App
Temp
°C
Dew
Point
Rel
Hum
%
Delta-T
°C
Wind Press
QNH
hPa
Press
MSL
hPa
Rain
since 9 am
mm
Dir
 
Spd
km/h
Gust
km/h
Spd
kts
Gust
kts
29/11:30pm 8.3 6.8 6.8 90 0.7 NE 4 4 2 2 - - 0.0
29/11:00pm 9.8 9.4 8.4 91 0.7 CALM 0 0 0 0 - - 0.0
29/10:30pm 10.1 9.6 7.9 86 1.1 CALM 0 2 0 1 - - 0.0
29/10:00pm 10.0 9.5 7.8 86 1.1 CALM 0 0 0 0 - - 0.0
29/09:30pm 11.6 11.3 8.6 82 1.5 CALM 0 0 0 0 - - 0.0
29/09:00pm 11.4 11.0 8.3 81 1.5 CALM 0 2 0 1 - - 0.0
29/08:30pm 12.7 11.7 8.8 77 2.0 NNE 4 6 2 3 - - 0.0
29/08:00pm 13.6 12.2 8.9 73 2.4 NNE 6 9 3 5 - - 0.0
29/07:30pm 14.2 12.5 8.2 67 3.0 NNE 7 9 4 5 - - 0.0
29/07:00pm 14.9 13.2 7.5 61 3.7 NNE 6 7 3 4 - - 0.0
29/06:30pm 15.5 13.7 7.0 57 4.2 N 6 7 3 4 - - 0.0
29/06:00pm 17.0 15.1 7.4 53 4.9 N 7 9 4 5 - - 0.0
29/05:30pm 18.4 15.6 6.9 47 5.8 N 11 19 6 10 - - 0.0
29/05:00pm 19.3 16.1 6.8 44 6.4 N 13 20 7 11 - - 0.0
29/04:30pm 19.8 16.6 6.9 43 6.6 NNW 13 20 7 11 - - 0.0
29/04:00pm 20.2 16.5 7.9 45 6.4 NW 17 24 9 13 - - 0.0
29/03:30pm 19.8 15.5 6.9 43 6.6 NNW 19 30 10 16 - - 0.0
29/03:00pm 19.9 15.7 7.6 45 6.4 NNW 19 28 10 15 - - 0.0
29/02:30pm 19.9 16.8 8.9 49 5.9 NNW 15 22 8 12 - - 0.0
29/02:00pm 19.6 16.5 10.3 55 5.1 NNE 17 26 9 14 - - 0.0
29/01:30pm 18.8 15.6 8.5 51 5.4 N 15 26 8 14 - - 0.0
29/01:00pm 18.7 15.3 7.8 49 5.6 NNE 15 22 8 12 - - 0.0
29/12:30pm 18.6 15.4 8.3 51 5.4 N 15 24 8 13 - - 0.0
29/12:00pm 17.5 14.5 7.5 52 5.1 NNE 13 20 7 11 - - 0.0
29/11:30am 17.3 14.2 7.1 51 5.2 N 13 24 7 13 - - 0.0
29/11:00am 16.9 15.0 7.5 54 4.8 NNE 7 13 4 7 - - 0.0
29/10:30am 16.0 14.4 6.2 52 4.8 NNW 4 9 2 5 - - 0.0
29/10:00am 16.1 14.2 6.8 54 4.6 ENE 6 9 3 5 - - 0.0
29/09:30am 15.2 13.5 7.7 61 3.8 N 6 9 3 5 - - 0.0
29/09:00am 14.4 12.9 7.0 61 3.7 NNE 4 7 2 4 - - 0.0
29/08:30am 12.2 10.5 5.8 65 3.0 NNE 4 9 2 5 - - 0.0
29/08:00am 11.2 9.7 5.1 66 2.8 ESE 2 4 1 2 - - 0.0
29/07:30am 9.5 8.0 5.1 74 2.0 SSW 2 6 1 3 - - 0.0
29/07:00am 6.8 4.7 4.1 83 1.2 SSW 4 6 2 3 - - 0.0
29/06:30am 5.3 3.4 2.7 83 1.1 SSW 2 4 1 2 - - 0.0
29/06:00am 5.7 3.0 2.7 81 1.3 SSW 6 7 3 4 - - 0.0
29/05:30am 6.4 4.5 2.7 77 1.6 ESE 2 4 1 2 - - 0.0
29/05:00am 6.3 4.8 2.8 78 1.5 CALM 0 4 0 2 - - 0.0
29/04:30am 5.9 3.2 2.4 78 1.5 S 6 7 3 4 - - 0.0
29/04:00am 8.2 6.3 2.7 68 2.4 W 2 4 1 2 - - 0.0
29/03:30am 9.5 6.6 2.8 63 2.9 W 7 11 4 6 - - 0.0
29/03:00am 9.4 6.7 2.5 62 3.0 WSW 6 9 3 5 - - 0.0
29/02:30am 11.6 8.4 2.9 55 3.9 WSW 9 19 5 10 - - 0.0
29/02:00am 12.4 9.0 4.1 57 3.8 SW 11 20 6 11 - - 0.0
29/01:30am 14.7 9.9 5.8 55 4.3 WSW 20 43 11 23 - - 0.0
29/01:00am 16.0 13.6 8.5 61 3.9 WSW 11 17 6 9 - - 0.0
29/12:30am 17.5 14.3 8.6 56 4.6 WSW 15 24 8 13 - - 0.0
29/12:00am 18.4 15.9 6.6 46 6.0 W 9 19 5 10 - - 0.0
 
Date/Time
EST
Temp
°C
App
Temp
°C
Dew
Point
Rel
Hum
%
Delta-T
°C
Wind Press
QNH
hPa
Press
MSL
hPa
Rain
since 9 am
mm
Dir
 
Spd
km/h
Gust
km/h
Spd
kts
Gust
kts
28/11:30pm 17.1 14.8 5.7 47 5.6 NW 7 13 4 7 - - 0.0
28/11:00pm 17.5 14.4 5.4 45 5.9 NW 11 15 6 8 - - 0.0
28/10:30pm 17.8 16.1 6.0 46 5.9 NNE 4 7 2 4 - - 0.0
28/10:00pm 17.2 15.1 5.8 47 5.6 NW 6 7 3 4 - - 0.0
28/09:30pm 19.0 17.0 6.2 43 6.4 W 6 17 3 9 - - 0.0
28/09:00pm 20.5 16.6 5.3 37 7.6 N 15 22 8 12 - - 0.0
28/08:30pm 20.6 17.1 5.4 37 7.6 N 13 19 7 10 - - 0.0
28/08:00pm 20.4 16.6 5.6 38 7.4 N 15 24 8 13 - - 0.0
28/07:30pm 20.6 16.9 6.2 39 7.3 N 15 26 8 14 - - 0.0
28/07:00pm 21.4 17.7 6.5 38 7.7 N 15 24 8 13 - - 0.0
28/06:30pm 21.9 18.3 6.6 37 7.9 NNE 15 28 8 15 - - 0.0
28/06:00pm 22.6 18.3 6.8 36 8.2 N 19 28 10 15 - - 0.0
28/05:30pm 22.9 19.1 7.4 37 8.2 NNE 17 28 9 15 - - 0.0
28/05:00pm 24.2 19.0 5.5 30 9.6 N 22 33 12 18 - - 0.0
28/04:30pm 24.7 17.9 5.0 28 10.1 N 30 44 16 24 - - 0.0
28/04:00pm 24.9 17.4 4.6 27 10.3 N 33 61 18 33 - - 0.0
28/03:32pm 26.0 18.1 4.5 25 11.0 N 35 56 19 30 - - 0.0
28/03:30pm 26.3 19.0 5.3 26 10.9 N 33 52 18 28 - - 0.0
28/03:02pm 25.9 19.0 6.5 29 10.2 N 32 52 17 28 - - 0.0
28/03:00pm 25.9 18.8 6.5 29 10.2 N 33 52 18 28 - - 0.0
28/02:47pm 25.8 18.5 7.4 31 9.9 N 35 56 19 30 - - 0.0
28/02:30pm 25.6 19.8 9.4 36 9.0 N 30 44 16 24 - - 0.0
28/02:00pm 24.7 20.0 10.6 41 7.9 NNE 26 41 14 22 - - 0.0
28/01:45pm 24.8 19.7 10.7 41 8.0 N 28 46 15 25 - - 0.0

Other Formats:

Comma delimited format used in spreadsheet applications
http://www.bom.gov.au/fwo/IDV60801/IDV60801.94859.axf

JavaScript Object Notation format (JSON) in row-major order
http://www.bom.gov.au/fwo/IDV60801/IDV60801.94859.json